createdAt,value
2022-08-14T00:00:25.945Z,9.07
2022-08-14T00:01:46.278Z,9.68
2022-08-14T00:03:03.268Z,10.38
2022-08-14T00:04:35.256Z,11.05
2022-08-14T00:05:39.904Z,11.03
2022-08-14T00:06:51.792Z,10.55
2022-08-14T00:07:59.285Z,10.25
2022-08-14T00:09:06.348Z,9.71
2022-08-14T00:10:50.455Z,9.39
2022-08-14T00:11:44.736Z,9.24
2022-08-14T00:12:56.666Z,9.30
2022-08-14T00:14:05.779Z,9.15
2022-08-14T00:15:20.263Z,8.88
2022-08-14T00:16:41.251Z,9.74
2022-08-14T00:17:55.323Z,10.39
2022-08-14T00:19:06.869Z,8.75
2022-08-14T00:20:35.970Z,8.62
2022-08-14T00:21:52.374Z,8.86
2022-08-14T00:23:12.563Z,8.61
2022-08-14T00:24:28.846Z,8.28
2022-08-14T00:25:42.408Z,9.20
2022-08-14T00:26:52.682Z,9.95
2022-08-14T00:28:03.648Z,10.68
2022-08-14T00:29:13.739Z,10.89
2022-08-14T00:30:23.284Z,10.67
2022-08-14T00:31:44.359Z,10.46
2022-08-14T00:32:56.531Z,9.86
2022-08-14T00:34:35.290Z,9.75
2022-08-14T00:36:35.223Z,10.16
2022-08-14T00:37:03.619Z,10.25
2022-08-14T00:38:13.890Z,10.46
2022-08-14T00:39:21.765Z,10.14
2022-08-14T00:40:35.426Z,10.23
2022-08-14T00:41:44.652Z,10.34
2022-08-14T00:42:56.228Z,10.84
2022-08-14T00:44:06.013Z,11.06
2022-08-14T00:45:15.781Z,11.58
2022-08-14T00:46:32.573Z,11.48
2022-08-14T00:47:45.242Z,10.86
2022-08-14T00:48:53.756Z,10.30
2022-08-14T00:50:04.453Z,10.74
2022-08-14T00:51:15.342Z,11.43
2022-08-14T00:52:24.426Z,11.63
2022-08-14T00:53:32.744Z,11.58
2022-08-14T00:54:40.374Z,11.48
2022-08-14T00:55:48.481Z,12.01
2022-08-14T00:56:57.962Z,12.17
2022-08-14T00:58:27.986Z,12.09
2022-08-14T00:59:41.022Z,12.27
2022-08-14T01:00:51.305Z,12.66
2022-08-14T01:02:04.545Z,12.53
2022-08-14T01:03:12.022Z,12.46
2022-08-14T01:04:38.383Z,12.76
2022-08-14T01:05:52.193Z,14.01
2022-08-14T01:06:59.972Z,14.80
2022-08-14T01:08:50.641Z,15.11
2022-08-14T01:09:40.883Z,15.13
2022-08-14T01:10:52.429Z,14.93
2022-08-14T01:12:03.268Z,14.73
2022-08-14T01:13:10.902Z,13.92
2022-08-14T01:14:28.555Z,14.52
2022-08-14T01:15:57.505Z,15.14
2022-08-14T01:17:03.535Z,15.26
2022-08-14T01:18:30.455Z,15.52
2022-08-14T01:19:55.990Z,15.73
2022-08-14T01:21:07.873Z,15.96
2022-08-14T01:22:18.828Z,15.84
2022-08-14T01:23:26.254Z,15.62
2022-08-14T01:24:50.872Z,15.79
2022-08-14T01:25:58.384Z,14.91
2022-08-14T01:27:07.167Z,14.47
2022-08-14T01:28:47.379Z,14.76
2022-08-14T01:30:00.963Z,14.27
2022-08-14T01:31:17.460Z,14.74
2022-08-14T01:32:25.407Z,15.31
2022-08-14T01:33:59.157Z,15.46
2022-08-14T01:35:20.113Z,15.17
2022-08-14T01:36:28.991Z,14.09
2022-08-14T01:37:44.000Z,12.70
2022-08-14T01:38:52.565Z,12.82
2022-08-14T01:39:59.830Z,12.68
2022-08-14T01:41:14.851Z,12.48
2022-08-14T01:42:31.015Z,12.75
2022-08-14T01:43:56.595Z,13.18
2022-08-14T01:45:25.246Z,13.44
2022-08-14T01:46:39.051Z,13.51
2022-08-14T01:47:47.481Z,13.26
2022-08-14T01:48:59.295Z,13.60
2022-08-14T01:50:10.243Z,13.83
2022-08-14T01:51:20.273Z,14.19
2022-08-14T01:52:44.388Z,14.54
2022-08-14T01:54:07.712Z,14.60
2022-08-14T01:55:17.489Z,15.07
2022-08-14T01:56:39.379Z,15.31
2022-08-14T01:58:01.884Z,15.49
2022-08-14T01:59:37.925Z,16.22
2022-08-14T02:00:47.926Z,16.44
2022-08-14T02:01:59.450Z,16.66
2022-08-14T02:03:09.398Z,16.80
2022-08-14T02:04:20.466Z,16.92
2022-08-14T02:05:46.588Z,17.13
2022-08-14T02:06:55.209Z,17.31
2022-08-14T02:08:09.352Z,17.77
2022-08-14T02:09:19.383Z,18.06
2022-08-14T02:10:31.415Z,18.42
2022-08-14T02:11:45.055Z,18.78
2022-08-14T02:12:57.516Z,19.08
2022-08-14T02:14:14.169Z,19.37
2022-08-14T02:15:23.288Z,19.56
2022-08-14T02:16:36.005Z,19.72
2022-08-14T02:17:44.594Z,19.65
2022-08-14T02:18:59.353Z,19.46
2022-08-14T02:20:10.075Z,19.44
2022-08-14T02:21:23.291Z,19.49
2022-08-14T02:22:33.466Z,19.56
2022-08-14T02:23:42.087Z,19.87
2022-08-14T02:24:49.635Z,19.71
2022-08-14T02:25:57.326Z,19.83
2022-08-14T02:28:25.581Z,20.09
2022-08-14T02:28:58.494Z,20.17
2022-08-14T02:30:02.404Z,19.77
2022-08-14T02:31:10.342Z,19.60
2022-08-14T02:32:30.441Z,19.63
2022-08-14T02:33:47.530Z,19.74
2022-08-14T02:34:56.424Z,19.87
2022-08-14T02:37:03.741Z,20.40
2022-08-14T02:37:47.996Z,20.18
2022-08-14T02:38:57.659Z,20.48
2022-08-14T02:40:08.725Z,20.13
2022-08-14T02:41:17.367Z,20.32
2022-08-14T02:42:37.237Z,20.49
2022-08-14T02:43:48.336Z,20.75
2022-08-14T02:44:57.628Z,21.06
2022-08-14T02:46:09.313Z,21.03
2022-08-14T02:47:21.251Z,21.16
2022-08-14T02:49:01.469Z,21.40
2022-08-14T02:50:08.752Z,21.59
2022-08-14T02:51:17.905Z,21.48
2022-08-14T02:52:57.810Z,21.37
2022-08-14T02:53:56.982Z,21.48
2022-08-14T02:55:07.085Z,21.93
2022-08-14T02:56:29.949Z,22.12
2022-08-14T02:57:58.044Z,22.62
2022-08-14T02:59:12.110Z,22.46
2022-08-14T03:00:21.192Z,22.55
2022-08-14T03:01:31.360Z,23.14
2022-08-14T03:02:59.071Z,23.35
2022-08-14T03:04:09.702Z,23.35
2022-08-14T03:05:19.757Z,23.34
2022-08-14T03:06:35.153Z,23.54
2022-08-14T03:07:57.060Z,23.80
2022-08-14T03:09:06.971Z,23.81
2022-08-14T03:10:25.476Z,23.86
2022-08-14T03:11:37.813Z,24.03
2022-08-14T03:12:46.375Z,24.05
2022-08-14T03:13:55.969Z,24.41
2022-08-14T03:15:14.344Z,24.55
2022-08-14T03:16:26.632Z,24.48
2022-08-14T03:17:41.023Z,24.64
2022-08-14T03:19:05.990Z,24.88
2022-08-14T03:20:16.395Z,24.84
2022-08-14T03:21:25.931Z,24.88
2022-08-14T03:22:35.780Z,25.17
2022-08-14T03:23:49.443Z,25.15
2022-08-14T03:24:57.650Z,25.20
2022-08-14T03:26:07.100Z,25.27
2022-08-14T03:27:17.170Z,25.54
2022-08-14T03:28:33.580Z,25.51
2022-08-14T03:29:42.790Z,25.60
2022-08-14T03:30:50.925Z,25.70
2022-08-14T03:32:04.200Z,25.67
2022-08-14T03:33:14.586Z,25.94
2022-08-14T03:34:47.787Z,26.15
2022-08-14T03:36:05.205Z,26.29
2022-08-14T03:37:51.144Z,26.60
2022-08-14T03:39:13.081Z,26.89
2022-08-14T03:40:26.863Z,27.26
2022-08-14T03:41:36.224Z,27.46
2022-08-14T03:42:46.902Z,27.42
2022-08-14T03:45:18.536Z,27.43
2022-08-14T03:45:34.713Z,27.27
2022-08-14T03:46:52.289Z,27.53
2022-08-14T03:48:30.504Z,27.59
2022-08-14T03:49:42.258Z,27.54
2022-08-14T03:50:56.194Z,27.38
2022-08-14T03:52:07.675Z,27.11
2022-08-14T03:53:26.339Z,26.94
2022-08-14T03:54:36.697Z,26.91
2022-08-14T03:55:45.226Z,26.58
2022-08-14T03:56:56.689Z,26.63
2022-08-14T03:58:05.117Z,26.49
2022-08-14T03:59:18.015Z,26.48
2022-08-14T04:00:43.618Z,26.71
2022-08-14T04:02:01.213Z,26.68
2022-08-14T04:03:15.219Z,26.78
2022-08-14T04:04:26.928Z,26.80
2022-08-14T04:05:42.601Z,26.90
2022-08-14T04:06:53.163Z,26.86
2022-08-14T04:08:22.763Z,26.76
2022-08-14T04:09:37.064Z,26.69
2022-08-14T04:10:44.888Z,26.90
2022-08-14T04:11:54.032Z,26.59
2022-08-14T04:13:04.659Z,26.55
2022-08-14T04:14:15.323Z,26.47
2022-08-14T04:15:25.690Z,26.40
2022-08-14T04:16:34.239Z,26.58
2022-08-14T04:17:44.369Z,26.64
2022-08-14T04:18:56.044Z,26.60
2022-08-14T04:20:06.754Z,26.71
2022-08-14T04:21:19.687Z,26.81
2022-08-14T04:22:27.469Z,26.88
2022-08-14T04:23:36.410Z,26.68
2022-08-14T04:24:44.774Z,26.74
2022-08-14T04:25:57.945Z,26.99
2022-08-14T04:27:06.285Z,27.24
2022-08-14T04:29:06.891Z,27.72
2022-08-14T04:29:47.234Z,27.99
2022-08-14T04:30:56.691Z,27.99
2022-08-14T04:33:02.684Z,28.27
2022-08-14T04:33:41.127Z,28.43
2022-08-14T04:34:52.211Z,28.65
2022-08-14T04:36:01.135Z,28.79
2022-08-14T04:37:29.758Z,28.98
2022-08-14T04:38:57.293Z,28.96
2022-08-14T04:40:24.651Z,28.72
2022-08-14T04:42:14.171Z,28.87
2022-08-14T04:43:39.068Z,29.35
2022-08-14T04:44:48.985Z,29.43
2022-08-14T04:46:54.781Z,29.52
2022-08-14T04:48:04.299Z,29.85
2022-08-14T04:49:15.811Z,30.05
2022-08-14T04:50:37.957Z,30.31
2022-08-14T04:51:55.401Z,30.49
2022-08-14T04:53:05.038Z,30.55
2022-08-14T04:54:13.720Z,30.78
2022-08-14T04:55:25.630Z,30.72
2022-08-14T04:56:35.773Z,30.90
2022-08-14T04:57:44.289Z,30.99
2022-08-14T04:58:57.968Z,31.12
2022-08-14T05:00:16.158Z,31.31
2022-08-14T05:01:27.714Z,31.53
2022-08-14T05:02:36.555Z,31.61
2022-08-14T05:03:45.186Z,31.72
2022-08-14T05:04:57.427Z,31.63
2022-08-14T05:06:37.988Z,31.80
2022-08-14T05:07:54.066Z,31.81
2022-08-14T05:09:14.204Z,31.79
2022-08-14T05:10:25.641Z,32.11
2022-08-14T05:11:41.147Z,32.17
2022-08-14T05:13:13.483Z,32.09
2022-08-14T05:14:45.851Z,32.06
2022-08-14T05:15:48.525Z,32.11
2022-08-14T05:17:03.083Z,32.09
2022-08-14T05:18:17.074Z,32.14
2022-08-14T05:19:32.090Z,32.16
2022-08-14T05:21:55.154Z,32.21
2022-08-14T05:22:19.312Z,32.19
2022-08-14T05:23:29.931Z,32.10
2022-08-14T05:24:38.122Z,32.13
2022-08-14T05:25:48.264Z,32.24
2022-08-14T05:27:01.504Z,32.28
2022-08-14T05:28:20.675Z,32.24
2022-08-14T05:29:29.701Z,32.23
2022-08-14T05:30:38.460Z,32.18
2022-08-14T05:31:46.617Z,32.35
2022-08-14T05:32:54.376Z,32.46
2022-08-14T05:34:02.610Z,32.46
2022-08-14T05:35:13.289Z,32.41
2022-08-14T05:36:23.099Z,32.53
2022-08-14T05:37:34.010Z,32.45
2022-08-14T05:38:46.141Z,32.22
2022-08-14T05:39:56.201Z,32.41
2022-08-14T05:41:14.570Z,32.45
2022-08-14T05:42:28.996Z,32.66
2022-08-14T05:43:42.029Z,32.63
2022-08-14T05:44:55.253Z,32.96
2022-08-14T05:46:04.149Z,33.20
2022-08-14T05:47:14.912Z,33.34
2022-08-14T05:48:33.914Z,33.37
2022-08-14T05:49:53.079Z,33.43
2022-08-14T05:51:01.429Z,33.81
2022-08-14T05:52:10.592Z,33.95
2022-08-14T05:53:27.647Z,34.01
2022-08-14T05:54:42.281Z,34.11
2022-08-14T05:55:53.862Z,34.15
2022-08-14T05:57:01.802Z,34.26
2022-08-14T05:58:11.206Z,34.38
2022-08-14T05:59:20.224Z,34.55
2022-08-14T06:00:46.764Z,34.65
2022-08-14T06:01:54.962Z,34.64
2022-08-14T06:03:07.008Z,34.55
2022-08-14T06:04:16.051Z,34.69
2022-08-14T06:05:24.976Z,34.87
2022-08-14T06:06:38.474Z,34.63
2022-08-14T06:07:46.775Z,34.77
2022-08-14T06:08:58.283Z,34.78
2022-08-14T06:10:07.445Z,34.79
2022-08-14T06:11:20.409Z,35.03
2022-08-14T06:12:56.334Z,35.11
2022-08-14T06:14:04.452Z,35.13
2022-08-14T06:15:21.693Z,35.20
2022-08-14T06:16:33.274Z,35.23
2022-08-14T06:17:58.610Z,35.32
2022-08-14T06:19:11.491Z,35.27
2022-08-14T06:20:27.997Z,35.33
2022-08-14T06:21:36.106Z,35.23
2022-08-14T06:22:45.025Z,35.44
2022-08-14T06:23:53.516Z,35.49
2022-08-14T06:25:01.808Z,35.63
2022-08-14T06:26:15.096Z,35.75
2022-08-14T06:27:24.842Z,35.99
2022-08-14T06:28:45.396Z,36.25
2022-08-14T06:29:54.082Z,36.44
2022-08-14T06:31:02.704Z,36.47
2022-08-14T06:32:37.671Z,36.97
2022-08-14T06:35:10.123Z,37.42
2022-08-14T06:35:12.059Z,37.69
2022-08-14T06:36:22.432Z,37.75
2022-08-14T06:37:30.168Z,37.71
2022-08-14T06:38:37.801Z,38.03
2022-08-14T06:39:45.876Z,37.99
2022-08-14T06:40:53.836Z,38.14
2022-08-14T06:42:02.299Z,38.46
2022-08-14T06:43:15.517Z,38.53
2022-08-14T06:44:30.700Z,38.54
2022-08-14T06:45:42.501Z,38.81
2022-08-14T06:46:51.533Z,38.95
2022-08-14T06:48:00.281Z,39.28
2022-08-14T06:49:09.492Z,39.64
2022-08-14T06:50:28.011Z,39.87
2022-08-14T06:51:44.930Z,40.01
2022-08-14T06:52:53.818Z,40.46
2022-08-14T06:54:02.254Z,40.32
2022-08-14T06:55:13.012Z,40.21
2022-08-14T06:56:21.791Z,39.94
2022-08-14T06:57:39.617Z,39.90
2022-08-14T06:58:48.033Z,40.74
2022-08-14T06:59:56.002Z,41.92
2022-08-14T07:01:26.967Z,42.73
2022-08-14T07:02:54.449Z,42.78
2022-08-14T07:04:23.721Z,42.89
2022-08-14T07:05:55.456Z,43.13
2022-08-14T07:07:04.555Z,43.19
2022-08-14T07:08:25.753Z,43.81
2022-08-14T07:09:43.584Z,43.73
2022-08-14T07:11:01.731Z,43.48
2022-08-14T07:12:53.075Z,43.28
2022-08-14T07:13:40.167Z,43.96
2022-08-14T07:14:50.920Z,44.77
2022-08-14T07:15:59.193Z,44.91
2022-08-14T07:17:09.798Z,44.76
2022-08-14T07:18:23.073Z,44.76
2022-08-14T07:19:31.083Z,44.55
2022-08-14T07:20:39.404Z,44.76
2022-08-14T07:21:47.058Z,44.62
2022-08-14T07:23:05.340Z,44.73
2022-08-14T07:24:21.823Z,45.09
2022-08-14T07:25:34.869Z,45.45
2022-08-14T07:26:45.810Z,45.25
2022-08-14T07:27:53.874Z,45.20
2022-08-14T07:29:02.059Z,45.02
2022-08-14T07:30:34.719Z,45.20
2022-08-14T07:31:40.199Z,45.54
2022-08-14T07:32:49.509Z,45.76
2022-08-14T07:33:58.629Z,45.73
2022-08-14T07:35:08.204Z,45.79
2022-08-14T07:36:27.635Z,45.70
2022-08-14T07:37:38.952Z,45.78
2022-08-14T07:38:46.731Z,46.22
2022-08-14T07:40:00.988Z,45.91
2022-08-14T07:41:14.364Z,45.91
2022-08-14T07:42:25.464Z,45.85
2022-08-14T07:43:33.429Z,46.25
2022-08-14T07:44:46.293Z,46.49
2022-08-14T07:45:57.942Z,46.75
2022-08-14T07:47:05.952Z,46.99
2022-08-14T07:48:16.647Z,46.48
2022-08-14T07:49:28.670Z,46.84
2022-08-14T07:50:37.327Z,47.31
2022-08-14T07:51:45.844Z,47.71
2022-08-14T07:52:58.564Z,47.30
2022-08-14T07:54:11.580Z,46.91
2022-08-14T07:55:21.069Z,46.86
2022-08-14T07:56:46.592Z,47.06
2022-08-14T07:57:57.917Z,47.20
2022-08-14T07:59:06.215Z,47.26
2022-08-14T08:00:31.221Z,47.22
2022-08-14T08:01:48.387Z,47.50
2022-08-14T08:03:01.190Z,47.58
2022-08-14T08:04:16.567Z,48.14
2022-08-14T08:05:27.315Z,48.52
2022-08-14T08:06:35.560Z,48.70
2022-08-14T08:07:43.898Z,48.71
2022-08-14T08:09:00.906Z,48.84
2022-08-14T08:10:57.218Z,48.72
2022-08-14T08:12:00.272Z,48.64
2022-08-14T08:13:14.280Z,48.36
2022-08-14T08:14:22.759Z,48.12
2022-08-14T08:15:34.123Z,48.12
2022-08-14T08:16:43.172Z,48.11
2022-08-14T08:17:53.369Z,48.21
2022-08-14T08:19:12.691Z,48.24
2022-08-14T08:20:23.089Z,48.12
2022-08-14T08:21:33.387Z,48.02
2022-08-14T08:22:48.425Z,47.94
2022-08-14T08:24:04.405Z,48.06
2022-08-14T08:25:17.866Z,48.21
2022-08-14T08:26:33.350Z,48.31
2022-08-14T08:27:44.814Z,48.91
2022-08-14T08:29:00.202Z,49.34
2022-08-14T08:30:12.218Z,49.36
2022-08-14T08:31:20.994Z,49.42
2022-08-14T08:32:30.430Z,49.61
2022-08-14T08:33:49.468Z,49.87
2022-08-14T08:34:58.287Z,49.69
2022-08-14T08:36:12.485Z,49.67
2022-08-14T08:37:21.875Z,49.83
2022-08-14T08:39:15.175Z,50.16
2022-08-14T08:40:04.259Z,50.25
2022-08-14T08:41:14.913Z,50.49
2022-08-14T08:42:31.417Z,50.53
2022-08-14T08:43:46.219Z,50.60
2022-08-14T08:44:58.920Z,50.95
2022-08-14T08:46:18.545Z,50.80
2022-08-14T08:47:40.557Z,50.72
2022-08-14T08:50:01.691Z,51.39
2022-08-14T08:51:34.802Z,51.69
2022-08-14T08:52:53.133Z,51.80
2022-08-14T08:54:06.106Z,51.56
2022-08-14T08:55:14.932Z,51.41
2022-08-14T08:56:30.349Z,51.27
2022-08-14T08:57:45.768Z,51.39
2022-08-14T08:58:54.451Z,51.39
2022-08-14T09:00:09.959Z,51.77
2022-08-14T09:01:32.693Z,51.86
2022-08-14T09:02:41.317Z,51.97
2022-08-14T09:03:49.740Z,51.89
2022-08-14T09:05:05.330Z,51.87
2022-08-14T09:07:01.450Z,51.97
2022-08-14T09:07:41.741Z,51.91
2022-08-14T09:08:50.554Z,51.90
2022-08-14T09:10:00.757Z,51.77
2022-08-14T09:11:19.874Z,51.73
2022-08-14T09:12:32.619Z,51.58
2022-08-14T09:13:45.828Z,51.56
2022-08-14T09:14:55.001Z,51.43
2022-08-14T09:16:18.624Z,51.41
2022-08-14T09:17:27.800Z,51.36
2022-08-14T09:18:36.182Z,51.58
2022-08-14T09:19:44.656Z,51.32
2022-08-14T09:20:54.810Z,51.12
2022-08-14T09:22:34.915Z,51.06
2022-08-14T09:24:29.502Z,51.33
2022-08-14T09:25:07.262Z,51.17
2022-08-14T09:26:21.122Z,51.04
2022-08-14T09:27:29.695Z,50.93
2022-08-14T09:28:37.472Z,50.95
2022-08-14T09:29:53.976Z,50.91
2022-08-14T09:31:07.314Z,50.94
2022-08-14T09:32:59.321Z,51.28
2022-08-14T09:34:19.697Z,51.41
2022-08-14T09:35:56.537Z,51.29
2022-08-14T09:37:41.245Z,51.21
2022-08-14T09:39:26.832Z,51.46
2022-08-14T09:40:55.820Z,51.57
2022-08-14T09:42:33.206Z,51.38
2022-08-14T09:43:41.542Z,51.66
2022-08-14T09:45:12.790Z,51.95
2022-08-14T09:46:25.516Z,51.70
2022-08-14T09:47:54.318Z,51.46
2022-08-14T09:49:03.832Z,51.37
2022-08-14T09:50:32.064Z,51.29
2022-08-14T09:51:45.214Z,51.14
2022-08-14T09:53:11.041Z,51.13
2022-08-14T09:54:26.186Z,51.24
2022-08-14T09:55:42.730Z,51.10
2022-08-14T09:56:57.132Z,50.99
2022-08-14T09:58:15.039Z,50.72
2022-08-14T09:59:33.457Z,50.58
2022-08-14T10:01:01.878Z,50.31
2022-08-14T10:02:24.383Z,50.32
2022-08-14T10:03:38.715Z,50.37
2022-08-14T10:04:49.984Z,50.17
2022-08-14T10:06:08.794Z,49.93
2022-08-14T10:07:16.308Z,50.11
2022-08-14T10:08:26.556Z,50.04
2022-08-14T10:09:57.784Z,49.74
2022-08-14T10:11:25.651Z,49.67
2022-08-14T10:12:46.669Z,49.68
2022-08-14T10:13:56.856Z,49.76
2022-08-14T10:15:04.929Z,49.68
2022-08-14T10:16:25.958Z,49.68
2022-08-14T10:17:39.106Z,49.95
2022-08-14T10:18:47.699Z,50.15
2022-08-14T10:19:58.187Z,50.21
2022-08-14T10:21:09.737Z,50.18
2022-08-14T10:23:14.917Z,50.21
2022-08-14T10:23:51.628Z,50.24
2022-08-14T10:25:02.010Z,50.39
2022-08-14T10:26:12.003Z,50.49
2022-08-14T10:27:31.567Z,50.62
2022-08-14T10:29:03.792Z,50.88
2022-08-14T10:30:25.712Z,51.13
2022-08-14T10:31:43.154Z,51.44
2022-08-14T10:32:56.716Z,51.67
2022-08-14T10:34:12.819Z,51.77
2022-08-14T10:35:31.180Z,51.86
2022-08-14T10:36:41.835Z,51.81
2022-08-14T10:37:56.188Z,52.00
2022-08-14T10:39:06.158Z,52.14
2022-08-14T10:40:38.547Z,52.27
2022-08-14T10:41:48.772Z,52.16
2022-08-14T10:43:01.688Z,52.10
2022-08-14T10:44:21.597Z,52.24
2022-08-14T10:45:46.224Z,52.28
2022-08-14T10:47:40.563Z,52.30
2022-08-14T10:48:38.173Z,52.15
2022-08-14T10:50:00.456Z,52.17
2022-08-14T10:51:08.441Z,52.24
2022-08-14T10:52:26.704Z,52.33
2022-08-14T10:53:39.897Z,52.45
2022-08-14T10:54:50.524Z,52.39
2022-08-14T10:56:08.541Z,52.43
2022-08-14T10:57:32.003Z,52.50
2022-08-14T10:58:43.124Z,52.37
2022-08-14T10:59:57.504Z,52.49
2022-08-14T11:01:07.413Z,52.37
2022-08-14T11:02:54.076Z,52.31
2022-08-14T11:04:03.653Z,52.27
2022-08-14T11:05:15.141Z,52.83
2022-08-14T11:06:24.951Z,53.20
2022-08-14T11:07:35.459Z,53.37
2022-08-14T11:08:43.713Z,53.85
2022-08-14T11:10:04.462Z,54.33
2022-08-14T11:11:13.504Z,54.15
2022-08-14T11:12:33.899Z,54.15
2022-08-14T11:13:48.004Z,54.46
2022-08-14T11:15:03.630Z,54.76
2022-08-14T11:16:13.387Z,55.18
2022-08-14T11:17:21.982Z,55.51
2022-08-14T11:18:40.046Z,55.20
2022-08-14T11:19:53.818Z,55.31
2022-08-14T11:21:02.887Z,55.72
2022-08-14T11:22:15.327Z,55.71
2022-08-14T11:23:44.132Z,55.96
2022-08-14T11:24:55.839Z,56.12
2022-08-14T11:26:04.916Z,55.80
2022-08-14T11:27:19.029Z,55.63
2022-08-14T11:28:48.581Z,55.80
2022-08-14T11:30:00.412Z,55.90
2022-08-14T11:31:27.565Z,55.90
2022-08-14T11:32:50.791Z,56.53
2022-08-14T11:34:01.824Z,56.93
2022-08-14T11:35:14.784Z,57.01
2022-08-14T11:36:35.060Z,56.95
2022-08-14T11:38:03.479Z,56.88
2022-08-14T11:39:11.606Z,56.77
2022-08-14T11:40:28.645Z,56.99
2022-08-14T11:41:46.687Z,56.47
2022-08-14T11:43:08.214Z,56.93
2022-08-14T11:44:45.784Z,56.86
2022-08-14T11:45:53.352Z,56.87
2022-08-14T11:47:06.911Z,56.91
2022-08-14T11:49:03.229Z,56.80
2022-08-14T11:49:51.994Z,57.05
2022-08-14T11:51:01.985Z,57.12
2022-08-14T11:52:09.841Z,57.23
2022-08-14T11:53:31.764Z,57.17
2022-08-14T11:54:39.761Z,57.43
2022-08-14T11:55:52.385Z,57.81
2022-08-14T11:57:01.681Z,57.88
2022-08-14T11:58:12.050Z,58.07
2022-08-14T11:59:26.472Z,57.81
2022-08-14T12:00:52.641Z,57.84
2022-08-14T12:03:01.009Z,57.96
2022-08-14T12:03:52.411Z,58.13
2022-08-14T12:05:09.284Z,58.62
2022-08-14T12:06:28.889Z,58.78
2022-08-14T12:07:53.418Z,58.58
2022-08-14T12:09:01.965Z,58.53
2022-08-14T12:10:27.272Z,58.44
2022-08-14T12:11:44.170Z,58.12
2022-08-14T12:12:57.956Z,58.10
2022-08-14T12:14:29.045Z,57.81
2022-08-14T12:15:44.791Z,57.63
2022-08-14T12:17:12.259Z,57.68
2022-08-14T12:18:36.057Z,57.56
2022-08-14T12:19:57.368Z,57.44
2022-08-14T12:21:21.858Z,57.58
2022-08-14T12:22:43.873Z,57.55
2022-08-14T12:24:09.502Z,57.35
2022-08-14T12:25:38.270Z,57.22
2022-08-14T12:26:46.623Z,57.51
2022-08-14T12:28:27.226Z,57.74
2022-08-14T12:29:43.734Z,57.63
2022-08-14T12:30:53.639Z,57.96
2022-08-14T12:32:08.859Z,58.09
2022-08-14T12:33:34.337Z,58.10
2022-08-14T12:34:46.936Z,57.94
2022-08-14T12:35:57.996Z,58.10
2022-08-14T12:37:11.725Z,58.40
2022-08-14T12:38:21.049Z,58.58
2022-08-14T12:39:39.539Z,58.64
2022-08-14T12:40:56.129Z,58.35
2022-08-14T12:42:27.389Z,58.22
2022-08-14T12:43:52.881Z,58.08
2022-08-14T12:45:03.625Z,58.07
2022-08-14T12:46:27.528Z,57.96
2022-08-14T12:47:36.674Z,58.09
2022-08-14T12:48:50.351Z,58.24
2022-08-14T12:50:02.007Z,58.24
2022-08-14T12:51:21.577Z,58.41
2022-08-14T12:52:54.165Z,58.35
2022-08-14T12:54:27.139Z,58.44
2022-08-14T12:56:18.690Z,58.42
2022-08-14T12:57:20.359Z,58.34
2022-08-14T12:58:51.620Z,58.44
2022-08-14T13:00:23.154Z,59.02
2022-08-14T13:01:59.127Z,59.39
2022-08-14T13:03:07.053Z,59.54
2022-08-14T13:04:16.863Z,59.77
2022-08-14T13:05:33.888Z,59.98
2022-08-14T13:06:43.666Z,59.93
2022-08-14T13:07:53.033Z,59.68
2022-08-14T13:09:02.002Z,59.54
2022-08-14T13:10:45.883Z,59.40
2022-08-14T13:11:47.243Z,59.20
2022-08-14T13:13:15.585Z,59.45
2022-08-14T13:14:30.032Z,59.33
2022-08-14T13:15:40.188Z,59.31
2022-08-14T13:16:50.391Z,59.33
2022-08-14T13:18:01.710Z,59.22
2022-08-14T13:19:19.865Z,59.05
2022-08-14T13:20:30.995Z,59.13
2022-08-14T13:21:58.457Z,59.28
2022-08-14T13:23:12.230Z,59.25
2022-08-14T13:24:27.631Z,59.35
2022-08-14T13:25:35.944Z,59.35
2022-08-14T13:26:49.510Z,59.61
2022-08-14T13:27:59.114Z,59.56
2022-08-14T13:29:07.401Z,59.87
2022-08-14T13:30:23.784Z,59.77
2022-08-14T13:31:34.515Z,59.95
2022-08-14T13:32:42.302Z,59.68
2022-08-14T13:33:50.347Z,59.29
2022-08-14T13:35:02.310Z,59.16
2022-08-14T13:36:24.036Z,59.09
2022-08-14T13:37:43.552Z,59.09
2022-08-14T13:38:53.022Z,59.20
2022-08-14T13:40:01.934Z,59.33
2022-08-14T13:41:14.465Z,59.32
2022-08-14T13:42:24.951Z,59.23
2022-08-14T13:43:36.868Z,59.16
2022-08-14T13:45:05.273Z,58.88
2022-08-14T13:46:16.286Z,58.93
2022-08-14T13:47:31.426Z,58.80
2022-08-14T13:48:39.917Z,58.73
2022-08-14T13:49:57.770Z,58.42
2022-08-14T13:51:10.937Z,58.10
2022-08-14T13:52:51.565Z,57.81
2022-08-14T13:54:08.330Z,57.65
2022-08-14T13:55:21.521Z,57.64
2022-08-14T13:56:36.636Z,57.45
2022-08-14T13:57:49.510Z,57.36
2022-08-14T13:59:12.444Z,57.27
2022-08-14T14:00:32.956Z,57.18
2022-08-14T14:01:51.785Z,57.22
2022-08-14T14:03:01.084Z,57.41
2022-08-14T14:04:11.344Z,57.46
2022-08-14T14:05:53.250Z,58.23
2022-08-14T14:06:57.163Z,59.20
2022-08-14T14:08:06.369Z,59.56
2022-08-14T14:09:17.027Z,59.63
2022-08-14T14:10:28.651Z,59.41
2022-08-14T14:11:39.180Z,59.46
2022-08-14T14:12:56.459Z,59.49
2022-08-14T14:14:05.566Z,59.43
2022-08-14T14:15:28.684Z,59.37
2022-08-14T14:16:49.184Z,59.21
2022-08-14T14:18:00.925Z,59.09
2022-08-14T14:19:10.239Z,59.03
2022-08-14T14:20:35.022Z,58.76
2022-08-14T14:21:44.743Z,58.49
2022-08-14T14:23:02.909Z,58.29
2022-08-14T14:24:15.566Z,58.22
2022-08-14T14:25:25.251Z,58.22
2022-08-14T14:26:54.003Z,58.05
2022-08-14T14:28:05.923Z,57.72
2022-08-14T14:29:16.863Z,57.19
2022-08-14T14:30:51.968Z,56.71
2022-08-14T14:31:54.887Z,56.19
2022-08-14T14:33:05.329Z,55.77
2022-08-14T14:34:29.409Z,55.60
2022-08-14T14:35:40.208Z,55.53
2022-08-14T14:36:52.442Z,55.49
2022-08-14T14:38:01.403Z,55.17
2022-08-14T14:39:11.911Z,55.11
2022-08-14T14:40:54.524Z,54.85
2022-08-14T14:41:55.979Z,54.34
2022-08-14T14:43:05.559Z,53.34
2022-08-14T14:44:16.689Z,52.29
2022-08-14T14:45:25.669Z,51.39
2022-08-14T14:46:37.269Z,50.59
2022-08-14T14:47:50.457Z,50.01
2022-08-14T14:49:13.825Z,49.08
2022-08-14T14:50:26.149Z,48.12
2022-08-14T14:51:34.875Z,46.87
2022-08-14T14:52:44.458Z,46.00
2022-08-14T14:53:54.027Z,45.04
2022-08-14T14:55:01.988Z,44.33
2022-08-14T14:56:51.210Z,44.00
2022-08-14T14:57:42.410Z,43.94
2022-08-14T14:58:52.387Z,43.09
2022-08-14T15:00:01.014Z,42.57
2022-08-14T15:01:10.482Z,42.50
2022-08-14T15:02:31.904Z,42.65
2022-08-14T15:03:42.118Z,42.78
2022-08-14T15:04:51.069Z,43.03
2022-08-14T15:05:59.347Z,42.97
2022-08-14T15:07:08.084Z,42.92
2022-08-14T15:08:16.906Z,42.77
2022-08-14T15:09:34.975Z,42.38
2022-08-14T15:10:42.866Z,42.21
2022-08-14T15:11:55.583Z,41.72
2022-08-14T15:13:05.481Z,41.37
2022-08-14T15:14:55.706Z,40.92
2022-08-14T15:15:45.371Z,40.28
2022-08-14T15:16:54.299Z,40.04
2022-08-14T15:18:35.937Z,39.54
2022-08-14T15:19:39.735Z,39.26
2022-08-14T15:20:48.251Z,38.75
2022-08-14T15:21:58.023Z,38.46
2022-08-14T15:23:12.219Z,38.25
2022-08-14T15:24:26.420Z,37.95
2022-08-14T15:25:34.646Z,37.74
2022-08-14T15:26:44.076Z,37.69
2022-08-14T15:27:54.726Z,37.75
2022-08-14T15:29:05.211Z,36.92
2022-08-14T15:30:15.328Z,36.08
2022-08-14T15:31:32.887Z,35.81
2022-08-14T15:32:45.269Z,35.85
2022-08-14T15:34:44.997Z,36.20
2022-08-14T15:35:44.902Z,35.52
2022-08-14T15:36:55.651Z,35.20
2022-08-14T15:38:17.550Z,35.05
2022-08-14T15:39:29.591Z,34.88
2022-08-14T15:40:43.386Z,34.39
2022-08-14T15:41:52.533Z,34.33
2022-08-14T15:43:08.996Z,34.22
2022-08-14T15:44:25.346Z,33.78
2022-08-14T15:45:35.245Z,33.93
2022-08-14T15:46:45.500Z,33.84
2022-08-14T15:47:54.325Z,33.21
2022-08-14T15:49:02.573Z,32.40
2022-08-14T15:50:10.747Z,31.43
2022-08-14T15:51:19.387Z,30.94
2022-08-14T15:52:35.373Z,30.95
2022-08-14T15:53:43.619Z,31.06
2022-08-14T15:54:55.448Z,31.05
2022-08-14T15:56:04.597Z,30.98
2022-08-14T15:57:13.466Z,31.30
2022-08-14T15:58:22.917Z,30.97
2022-08-14T15:59:51.491Z,31.15
2022-08-14T16:01:50.856Z,30.86
2022-08-14T16:02:52.997Z,30.67
2022-08-14T16:04:00.717Z,30.47
2022-08-14T16:05:09.922Z,30.21
2022-08-14T16:06:20.528Z,30.28
2022-08-14T16:07:30.730Z,30.33
2022-08-14T16:08:38.214Z,30.36
2022-08-14T16:09:45.508Z,30.08
2022-08-14T16:10:54.161Z,29.53
2022-08-14T16:12:01.937Z,28.80
2022-08-14T16:13:09.323Z,28.43